Contact Us:
Email: info@sawbill.com
Phone: (218)663-7150
Fax: (218)663-7980
Mail: 4620 Sawbill Trail
Box 2129
Tofte, MN 55615


Powered by
Movable Type 3.15
 
Sawbill Weather History Archives: August 2003
Current Sawbill Weather History | « July 2003 | September 2003 »


Date

High
Temperature

Low
Temperature

Barometric
Pressure

Relative
Humidity 7AM

9 AM
Temperature

Moisture

Snow

08/31/03 78 53 30.17 82% 54 0  
08/30/03 71 48 30.18 82% 53 0  
08/29/03 68 47 30.26 86% 48 0  
08/28/03 67 50 30.00 84% 50 .7"  
08/27/03 71 50 29.84 88% 55 0  
08/26/03 81 49 30.12 78% 49 0  
08/25/03 78 59 29.90 90% 60 .03"  
08/24/03 89 61 30.02 83% 61 0  
08/23/03 67 52 29.91 88% 61 .08"  
08/22/03 80 51 30.27 84% 52 0  
08/21/03 73 55 30.13 86% 56 0  
08/20/03 82 65 29.75 91% 66 2.03"  
08/19/03 79 66 29.97 91% 67 0  
08/18/03 89 62 30.08 74% 70 0  
08/17/03 80 55 30.06 88% 56 0  
08/16/03 87 54 30.14 82% 55 0  
08/15/03 94 61 30.08 81% 62 0  
08/14/03 88 56 30.17 84% 68 0  
08/13/03 86 50 30.35 80% 56 0  
08/12/03 84 50 30.37 79% 50 0  
08/11/03 79 44 30.33 87% 44 0  
08/10/03 87 57 30.30 80% 57 0  
08/09/03 87 60 30.13 86% 65 0  
08/08/03 84 55 30.15 89% 60 0  
08/07/03 83 55 30.22 86% 56 0  
08/06/03 82 61 30.18 92% 62 .52"  
08/05/03 78 60 30.06 87% 67 0  
08/04/03 84 58 30.00 88% 60 0  
08/03/03 77 56 30.05 91% 59 .16"  
08/02/03 76 53 30.01 91% 56 0  
08/01/03 69 54 29.92 91% 59 .28"  
 


Home I Trip Planning I Rentals and Outfitting I Reservations I Campgrounds I Sawbill Store I Sawbill News I Contact

© 1997 - 2017, Sawbill Canoe Outfitters, Inc. I Privacy Policy